Time;durP1;ratioP1;P1;durP2;ratioP2;P2;SDS_P1;SDS_P2;PMS_P1;PMS_P2;Temp;Humidity;BMP_temperature;BMP_pressure;BME280_temperature;BME280_humidity;BME280_pressure;Samples;Min_cycle;Max_cycle;Signal;HPM_P1;HPM_P2
2022/12/05 00:02:23;;;;;;;35.80;17.37;;;;;;;-141.97;100.00;47880.44;4998120;28;20196;-86
2022/12/05 00:04:48;;;;;;;34.37;17.57;;;;;;;-141.97;100.00;47895.81;4995532;28;20167;-86
2022/12/05 00:07:13;;;;;;;32.47;16.03;;;;;;;-141.97;100.00;47888.13;5003282;28;20161;-87
2022/12/05 00:09:39;;;;;;;30.97;15.87;;;;;;;-141.97;100.00;47911.19;4980795;28;20501;-86
2022/12/05 00:12:05;;;;;;;32.77;15.60;;;;;;;-141.97;100.00;47936.19;4994962;28;20167;-86
2022/12/05 00:14:30;;;;;;;30.10;15.20;;;;;;;-141.97;100.00;47761.25;4995415;28;20160;-86
2022/12/05 00:16:55;;;;;;;31.30;16.40;;;;;;;-141.97;100.00;47799.72;4980027;28;20601;-85
2022/12/05 00:19:21;;;;;;;30.63;14.87;;;;;;;-141.97;100.00;47822.78;4980166;28;20230;-86
2022/12/05 00:21:47;;;;;;;31.17;14.50;;;;;;;-141.97;100.00;47924.66;5014722;28;20170;-86
2022/12/05 00:24:14;;;;;;;27.93;14.17;;;;;;;-141.97;100.00;47918.88;5014849;28;20170;-86
2022/12/05 00:26:40;;;;;;;27.67;14.40;;;;;;;-141.97;100.00;47980.41;4996920;28;20244;-86
2022/12/05 00:29:05;;;;;;;29.53;13.93;;;;;;;-141.97;100.00;47903.50;5014202;28;20198;-87
2022/12/05 00:31:31;;;;;;;28.10;15.13;;;;;;;-141.97;100.00;47995.78;5014328;28;20246;-87
2022/12/05 00:34:00;;;;;;;29.40;14.17;;;;;;;-141.97;100.00;47876.59;5014391;28;20219;-86
2022/12/05 00:36:28;;;;;;;30.53;14.27;;;;;;;-141.97;100.00;47918.88;4996730;28;20190;-86
2022/12/05 00:38:54;;;;;;;27.23;14.80;;;;;;;-141.97;100.00;47997.69;4994556;28;20199;-87
2022/12/05 00:41:24;;;;;;;28.47;13.90;;;;;;;-141.97;100.00;47886.22;4994498;28;20168;-86
2022/12/05 00:43:50;;;;;;;25.67;12.90;;;;;;;-141.97;100.00;47988.09;4994419;28;20617;-87
2022/12/05 00:46:19;;;;;;;25.03;13.07;;;;;;;-141.97;100.00;47934.25;4994898;28;20179;-86
2022/12/05 00:48:44;;;;;;;24.53;13.50;;;;;;;-141.97;100.00;47922.72;4994777;28;20203;-86
2022/12/05 00:51:16;;;;;;;23.63;12.70;;;;;;;-141.97;100.00;47874.69;4994664;28;20647;-86
2022/12/05 00:53:43;;;;;;;26.53;13.73;;;;;;;-141.97;100.00;47930.41;4994596;28;20160;-87
2022/12/05 00:56:10;;;;;;;25.43;13.07;;;;;;;-141.97;100.00;47874.69;4994572;28;20190;-86
2022/12/05 00:58:36;;;;;;;26.03;13.23;;;;;;;-141.97;100.00;47882.38;4994167;28;20679;-86
2022/12/05 01:01:12;;;;;;;25.53;12.87;;;;;;;-141.97;100.00;47857.38;4998198;28;20167;-85
2022/12/05 01:03:38;;;;;;;23.83;13.27;;;;;;;-141.97;100.00;47932.34;4994777;28;20163;-87
2022/12/05 01:06:04;;;;;;;26.23;13.27;;;;;;;-141.97;100.00;47932.34;4994116;28;20542;-88
2022/12/05 01:08:30;;;;;;;26.93;13.17;;;;;;;-141.97;100.00;47936.19;4994011;28;20158;-87
2022/12/05 01:10:57;;;;;;;22.93;12.63;;;;;;;-141.97;100.00;47861.22;4993785;28;20345;-87
2022/12/05 01:13:24;;;;;;;25.23;13.90;;;;;;;-141.97;100.00;47916.97;4976555;28;20211;-88
2022/12/05 01:15:49;;;;;;;25.53;14.10;;;;;;;-141.97;100.00;47941.94;4976792;28;20186;-87
2022/12/05 01:18:15;;;;;;;26.30;13.50;;;;;;;-141.97;100.00;48022.69;4976463;28;20286;-87
2022/12/05 01:20:41;;;;;;;23.70;12.67;;;;;;;-141.97;100.00;47915.03;4993796;28;20199;-87
2022/12/05 01:23:07;;;;;;;26.20;13.83;;;;;;;-141.97;100.00;47884.28;4976322;28;20200;-87
2022/12/05 01:25:33;;;;;;;31.53;13.20;;;;;;;-141.97;100.00;47817.00;4993754;28;20243;-87
2022/12/05 01:27:58;;;;;;;30.03;16.00;;;;;;;-141.97;100.00;47961.19;4993581;28;20644;-87
2022/12/05 01:30:24;;;;;;;28.70;14.63;;;;;;;-141.97;100.00;47968.88;4974988;28;20171;-88
2022/12/05 01:32:49;;;;;;;33.97;15.80;;;;;;;-141.97;100.00;47928.50;4993640;28;20196;-88
2022/12/05 01:35:15;;;;;;;28.17;15.30;;;;;;;-141.97;100.00;47920.81;4993522;28;20195;-87
2022/12/05 01:37:40;;;;;;;31.57;17.27;;;;;;;-141.97;100.00;47724.75;4993622;28;20259;-87
2022/12/05 01:40:07;;;;;;;29.90;14.50;;;;;;;-141.97;100.00;47907.34;4976081;28;20171;-87
2022/12/05 01:42:32;;;;;;;26.63;12.83;;;;;;;-141.97;100.00;47932.34;4993962;28;20683;-87
2022/12/05 01:45:04;;;;;;;26.80;12.40;;;;;;;-141.97;100.00;47842.00;5006228;28;20172;-88
2022/12/05 01:47:32;;;;;;;27.77;13.20;;;;;;;-141.97;100.00;47734.34;5006370;28;20290;-87
2022/12/05 01:49:58;;;;;;;24.70;13.13;;;;;;;-141.97;100.00;47911.19;5002325;28;20163;-87
2022/12/05 01:52:26;;;;;;;28.13;13.27;;;;;;;-141.97;100.00;47922.72;4995311;28;20174;-88
2022/12/05 01:54:58;;;;;;;23.47;12.63;;;;;;;-141.97;100.00;47965.03;4994481;28;20230;-87
2022/12/05 01:57:24;;;;;;;29.77;14.00;;;;;;;-141.97;100.00;47972.72;4993946;28;20171;-87
2022/12/05 01:59:55;;;;;;;35.97;15.53;;;;;;;-141.97;100.00;47763.19;4993926;28;20191;-87
2022/12/05 02:02:21;;;;;;;31.93;14.00;;;;;;;-141.97;100.00;47872.75;4993677;28;20626;-87
2022/12/05 02:05:14;;;;;;;28.63;13.97;;;;;;;-141.97;100.00;47915.03;4976146;28;20171;-87
2022/12/05 02:07:40;;;;;;;34.57;16.40;;;;;;;-141.97;100.00;47911.19;4993695;28;20589;-87
2022/12/05 02:10:06;;;;;;;29.07;14.17;;;;;;;-141.97;100.00;47913.13;4975788;28;20595;-88
2022/12/05 02:12:33;;;;;;;26.47;12.93;;;;;;;-141.97;100.00;47743.97;4993065;28;20226;-87
2022/12/05 02:15:22;;;;;;;28.27;12.67;;;;;;;-141.97;100.00;47905.44;4992089;28;20172;-88
2022/12/05 02:18:17;;;;;;;26.23;12.73;;;;;;;-141.97;100.00;47890.06;4992901;28;20237;-87
2022/12/05 02:20:48;;;;;;;46.57;21.07;;;;;;;-141.97;100.00;47890.06;4975580;28;20185;-88
2022/12/05 02:23:56;;;;;;;32.77;13.03;;;;;;;-141.97;100.00;47938.09;4994397;28;20291;-86
2022/12/05 02:26:34;;;;;;;32.13;14.30;;;;;;;-141.97;100.00;47909.28;4932753;29;20589;-87
2022/12/05 02:29:36;;;;;;;29.40;13.37;;;;;;;-141.97;100.00;47918.88;4932561;29;20193;-87
2022/12/05 02:32:12;;;;;;;27.73;13.53;;;;;;;-141.97;100.00;47922.72;4932420;29;20192;-87
2022/12/05 02:35:13;;;;;;;24.57;12.87;;;;;;;-141.97;100.00;47899.66;4916948;29;20323;-87
2022/12/05 02:38:08;;;;;;;23.73;12.53;;;;;;;-141.97;100.00;47922.72;4875845;29;20605;-87
2022/12/05 02:41:04;;;;;;;24.80;13.17;;;;;;;-141.97;100.00;47888.13;4875804;29;20207;-87
2022/12/05 02:44:11;;;;;;;25.47;12.60;;;;;;;-141.97;100.00;48011.16;4860274;29;20191;-87
2022/12/05 02:46:39;;;;;;;22.97;11.93;;;;;;;-141.97;100.00;47865.06;4838683;29;20236;-87
2022/12/05 02:49:09;;;;;;;24.67;12.53;;;;;;;-141.97;100.00;47922.72;4838669;29;20697;-87
2022/12/05 02:51:43;;;;;;;22.43;12.50;;;;;;;-141.97;100.00;47941.94;4838679;29;20268;-88
2022/12/05 02:54:13;;;;;;;24.60;13.13;;;;;;;-141.97;100.00;47918.88;4838745;29;20195;-88
2022/12/05 02:56:44;;;;;;;23.50;12.77;;;;;;;-141.97;100.00;47901.59;4838560;29;20277;-85
2022/12/05 02:59:09;;;;;;;24.20;12.17;;;;;;;-141.97;100.00;47926.56;4839014;29;20215;-86
2022/12/05 03:01:35;;;;;;;24.83;12.40;;;;;;;-141.97;100.00;47893.91;4838424;29;20243;-86
2022/12/05 03:04:02;;;;;;;26.77;12.83;;;;;;;-141.97;100.00;47926.56;4810787;29;20293;-86
2022/12/05 03:06:34;;;;;;;26.83;13.13;;;;;;;-141.97;100.00;47915.03;4802286;29;20295;-86
2022/12/05 03:09:12;;;;;;;23.83;12.23;;;;;;;-141.97;100.00;47968.88;4802247;29;20250;-86
2022/12/05 03:11:46;;;;;;;24.03;11.70;;;;;;;-141.97;100.00;47888.13;4801943;29;20212;-86
2022/12/05 03:14:27;;;;;;;20.83;11.37;;;;;;;-141.97;100.00;47922.72;4838371;29;20560;-86
2022/12/05 03:16:58;;;;;;;26.93;14.00;;;;;;;-141.97;100.00;47901.59;4875383;29;20202;-86
2022/12/05 03:19:31;;;;;;;25.43;12.30;;;;;;;-141.97;100.00;47915.03;4859819;29;20309;-87
2022/12/05 03:22:09;;;;;;;19.93;11.10;;;;;;;-141.97;100.00;47895.81;4875297;29;20186;-86
2022/12/05 03:24:37;;;;;;;27.00;12.57;;;;;;;-141.97;100.00;47938.09;4945391;29;20203;-87
2022/12/05 03:27:10;;;;;;;25.13;12.33;;;;;;;-141.97;100.00;48001.53;4952749;28;20220;-86
2022/12/05 03:29:53;;;;;;;27.80;12.77;;;;;;;-141.97;100.00;47886.22;4952856;28;20161;-86
2022/12/05 03:32:46;;;;;;;28.43;12.90;;;;;;;-141.97;100.00;47859.28;4953022;28;20166;-86
2022/12/05 03:35:21;;;;;;;27.47;13.90;;;;;;;-141.97;100.00;47874.69;4952993;28;20566;-86
2022/12/05 03:37:58;;;;;;;30.37;12.67;;;;;;;-141.97;100.00;47890.06;4953059;28;20549;-86
2022/12/05 03:40:30;;;;;;;25.53;12.50;;;;;;;-141.97;100.00;47876.59;4952067;29;20196;-86
2022/12/05 03:43:17;;;;;;;27.87;12.63;;;;;;;-141.97;100.00;47957.34;4956795;28;20228;-85
2022/12/05 03:46:04;;;;;;;28.03;13.23;;;;;;;-141.97;100.00;47905.44;4953830;28;20157;-86
2022/12/05 03:48:51;;;;;;;31.47;13.37;;;;;;;-141.97;100.00;47926.56;4968165;28;20161;-86
2022/12/05 03:51:22;;;;;;;27.57;13.90;;;;;;;-141.97;100.00;47895.81;4953251;28;20548;-87
2022/12/05 03:53:54;;;;;;;30.10;13.90;;;;;;;-141.97;100.00;47876.59;4954220;28;20165;-86
2022/12/05 03:56:27;;;;;;;28.53;13.13;;;;;;;-141.97;100.00;47866.97;4956602;28;20203;-87
2022/12/05 03:59:13;;;;;;;29.57;13.83;;;;;;;-141.97;100.00;47907.34;4956820;28;20664;-86
2022/12/05 04:01:41;;;;;;;27.73;13.60;;;;;;;-141.97;100.00;47926.56;4971601;28;20176;-86
2022/12/05 04:04:30;;;;;;;30.37;13.60;;;;;;;-141.97;100.00;47909.28;4956820;28;20168;-86
2022/12/05 04:06:59;;;;;;;33.07;14.43;;;;;;;-141.97;100.00;47922.72;4956738;28;20167;-87
2022/12/05 04:09:30;;;;;;;31.60;14.37;;;;;;;-141.97;100.00;47926.56;4956714;28;20236;-86
2022/12/05 04:12:04;;;;;;;34.27;15.90;;;;;;;-141.97;100.00;47926.56;4956620;28;20157;-87
2022/12/05 04:14:42;;;;;;;29.63;13.93;;;;;;;-141.97;100.00;47855.44;4956282;28;20172;-87
2022/12/05 04:17:33;;;;;;;33.30;14.53;;;;;;;-141.97;100.00;47976.56;4956716;28;20248;-87
2022/12/05 04:22:49;;;;;;;32.40;14.53;;;;;;;-141.97;100.00;47882.38;4956450;29;20249;-87
2022/12/05 04:25:32;;;;;;;29.17;14.23;;;;;;;-141.97;100.00;47899.66;4971268;28;20679;-88
2022/12/05 04:28:14;;;;;;;32.13;14.73;;;;;;;-141.97;100.00;47884.28;4956242;28;20157;-88
2022/12/05 04:31:05;;;;;;;32.00;15.43;;;;;;;-141.97;100.00;47938.09;4956365;28;20167;-89
2022/12/05 04:33:43;;;;;;;36.87;15.67;;;;;;;-141.97;100.00;47911.19;4971597;28;20254;-88
2022/12/05 04:36:47;;;;;;;35.60;16.10;;;;;;;-141.97;100.00;47903.50;4977799;28;20170;-88
2022/12/05 04:39:24;;;;;;;35.37;16.73;;;;;;;-141.97;100.00;47886.22;4935036;29;20193;-89
2022/12/05 04:41:54;;;;;;;38.93;17.53;;;;;;;-141.97;100.00;47920.81;4935069;29;20189;-88
2022/12/05 04:44:25;;;;;;;36.63;17.30;;;;;;;-141.97;100.00;47928.50;4935158;29;20201;-88
2022/12/05 04:46:53;;;;;;;40.20;17.47;;;;;;;-141.97;100.00;47945.81;4934879;29;20181;-88
2022/12/05 04:49:24;;;;;;;39.70;17.77;;;;;;;-141.97;100.00;47845.84;4934523;29;20170;-88
2022/12/05 04:51:54;;;;;;;39.60;19.40;;;;;;;-141.97;100.00;47920.81;4934634;29;20170;-88
2022/12/05 04:54:28;;;;;;;50.80;22.50;;;;;;;-141.97;100.00;47949.66;4934400;29;20221;-88
2022/12/05 04:57:05;;;;;;;52.73;24.93;;;;;;;-141.97;100.00;47865.06;4934116;29;20177;-88
2022/12/05 04:59:30;;;;;;;51.17;25.03;;;;;;;-141.97;100.00;47926.56;4934665;29;20217;-87
2022/12/05 05:02:04;;;;;;;48.90;20.27;;;;;;;-141.97;100.00;47945.81;4935151;29;20176;-87
2022/12/05 05:04:44;;;;;;;41.87;20.80;;;;;;;-141.97;100.00;47907.34;4935132;29;20170;-86
2022/12/05 05:07:12;;;;;;;54.97;22.93;;;;;;;-141.97;100.00;47922.72;4934599;29;20220;-87
2022/12/05 05:09:38;;;;;;;67.53;33.63;;;;;;;-141.97;100.00;47915.03;4934383;29;20612;-87
2022/12/05 05:12:04;;;;;;;44.53;23.47;;;;;;;-141.97;100.00;47926.56;4938062;28;20229;-87
2022/12/05 05:14:29;;;;;;;37.83;17.90;;;;;;;-141.97;100.00;47945.81;4994317;28;20562;-88
2022/12/05 05:16:56;;;;;;;39.20;19.57;;;;;;;-141.97;100.00;47826.63;4994015;28;20187;-87
2022/12/05 05:19:21;;;;;;;49.33;25.20;;;;;;;-141.97;100.00;47901.59;4993961;28;20191;-87
2022/12/05 05:21:47;;;;;;;39.83;17.30;;;;;;;-141.97;100.00;47818.94;4993825;28;20709;-87
2022/12/05 05:24:14;;;;;;;47.10;24.27;;;;;;;-141.97;100.00;47832.38;4976851;28;20217;-87
2022/12/05 05:26:41;;;;;;;45.03;20.33;;;;;;;-141.97;100.00;47903.50;4993902;28;20167;-87
2022/12/05 05:29:08;;;;;;;40.53;17.97;;;;;;;-141.97;100.00;47899.66;4993727;28;20206;-86
2022/12/05 05:31:34;;;;;;;38.93;18.60;;;;;;;-141.97;100.00;47976.56;4993904;28;20530;-87
2022/12/05 05:34:00;;;;;;;39.20;18.20;;;;;;;-141.97;100.00;47849.69;4993608;28;20722;-88
2022/12/05 05:36:27;;;;;;;49.20;24.80;;;;;;;-141.97;100.00;47868.91;4993655;28;20171;-88
2022/12/05 05:38:55;;;;;;;48.20;19.27;;;;;;;-141.97;100.00;47865.06;4993884;28;20286;-88
2022/12/05 05:41:23;;;;;;;43.00;19.57;;;;;;;-141.97;100.00;47861.22;4992830;28;20269;-88
2022/12/05 05:43:49;;;;;;;41.50;18.27;;;;;;;-141.97;100.00;47911.19;4993828;28;20159;-88
2022/12/05 05:46:17;;;;;;;44.63;19.33;;;;;;;-141.97;100.00;47936.19;4993793;28;20179;-88
2022/12/05 05:48:42;;;;;;;48.90;18.57;;;;;;;-141.97;100.00;47955.41;4993769;28;20164;-87
2022/12/05 05:51:10;;;;;;;47.13;23.50;;;;;;;-141.97;100.00;47915.03;4993430;28;20218;-87
2022/12/05 05:53:36;;;;;;;45.47;17.80;;;;;;;-141.97;100.00;47934.25;4993426;28;20258;-87
2022/12/05 05:56:07;;;;;;;39.40;16.53;;;;;;;-141.97;100.00;47936.19;4982136;28;20265;-88
2022/12/05 05:58:33;;;;;;;47.63;22.17;;;;;;;-141.97;100.00;47895.81;4975265;28;20347;-86
2022/12/05 06:01:17;;;;;;;47.37;19.70;;;;;;;-141.97;100.00;47963.09;4996689;28;20222;-87
2022/12/05 06:03:43;;;;;;;48.60;17.83;;;;;;;-141.97;100.00;47907.34;5012643;28;20163;-87
2022/12/05 06:06:11;;;;;;;63.97;25.13;;;;;;;-141.97;100.00;47938.09;5011296;28;20171;-88
2022/12/05 06:08:38;;;;;;;61.23;25.67;;;;;;;-141.97;100.00;47849.69;4993999;28;20168;-87
2022/12/05 06:11:09;;;;;;;37.73;17.43;;;;;;;-141.97;100.00;47918.88;4993783;28;20179;-88
2022/12/05 06:13:35;;;;;;;42.07;17.70;;;;;;;-141.97;100.00;48003.47;4975357;28;20266;-87
2022/12/05 06:16:00;;;;;;;53.50;18.37;;;;;;;-141.97;100.00;47922.72;4992720;28;20199;-87
2022/12/05 06:18:26;;;;;;;49.90;19.80;;;;;;;-141.97;100.00;47922.72;4992304;28;20253;-87
2022/12/05 06:20:57;;;;;;;51.70;19.67;;;;;;;-141.97;100.00;47913.13;4993012;28;20163;-87
2022/12/05 06:23:23;;;;;;;48.20;19.57;;;;;;;-141.97;100.00;47909.28;4993417;28;20616;-85
2022/12/05 06:25:54;;;;;;;42.67;15.50;;;;;;;-141.97;100.00;47915.03;4999985;28;20167;-87
2022/12/05 06:28:21;;;;;;;44.23;16.13;;;;;;;-141.97;100.00;47897.75;4992684;28;20174;-87
2022/12/05 06:30:46;;;;;;;48.53;16.87;;;;;;;-141.97;100.00;47915.03;4993014;28;20195;-88
2022/12/05 06:33:13;;;;;;;39.33;16.70;;;;;;;-141.97;100.00;47903.50;4975032;28;20241;-87
2022/12/05 06:35:39;;;;;;;44.33;16.70;;;;;;;-141.97;100.00;47842.00;4992694;28;20168;-87
2022/12/05 06:38:05;;;;;;;55.87;27.63;;;;;;;-141.97;100.00;47938.09;4974870;28;20199;-87
2022/12/05 06:40:31;;;;;;;54.77;26.60;;;;;;;-141.97;100.00;47845.84;4974859;28;20176;-87
2022/12/05 06:42:56;;;;;;;37.13;18.30;;;;;;;-141.97;100.00;47965.03;4992368;28;20167;-87
2022/12/05 06:45:22;;;;;;;48.93;20.70;;;;;;;-141.97;100.00;47888.13;4973965;28;20171;-87
2022/12/05 06:47:47;;;;;;;48.23;21.50;;;;;;;-141.97;100.00;48015.00;4974632;28;20179;-87
2022/12/05 06:50:13;;;;;;;49.37;22.40;;;;;;;-141.97;100.00;47915.03;4999386;28;20673;-86
2022/12/05 06:52:38;;;;;;;54.63;25.43;;;;;;;-141.97;100.00;47945.81;5012051;28;20671;-86
2022/12/05 06:55:04;;;;;;;45.87;22.13;;;;;;;-141.97;100.00;47991.94;4993860;28;20166;-86
2022/12/05 06:57:30;;;;;;;41.13;21.37;;;;;;;-141.97;100.00;47907.34;4996625;28;20703;-86
2022/12/05 07:02:40;;;;;;;50.97;23.90;;;;;;;-141.97;100.00;47870.81;4992460;28;20175;-89
2022/12/05 07:05:07;;;;;;;45.70;22.40;;;;;;;-141.97;100.00;47988.09;4993946;28;20155;-85
2022/12/05 07:07:32;;;;;;;46.83;22.90;;;;;;;-141.97;100.00;47984.25;4975466;28;20278;-86
2022/12/05 07:09:58;;;;;;;40.47;20.17;;;;;;;-141.97;100.00;48030.38;4993693;28;20242;-86
2022/12/05 07:12:23;;;;;;;42.97;21.10;;;;;;;-141.97;100.00;47924.66;5000018;28;20199;-87
2022/12/05 07:14:49;;;;;;;47.03;23.20;;;;;;;-141.97;100.00;47961.19;4999601;28;20175;-86
2022/12/05 07:17:14;;;;;;;46.67;23.33;;;;;;;-141.97;100.00;47926.56;4993410;28;20171;-87
2022/12/05 07:19:40;;;;;;;43.27;22.07;;;;;;;-141.97;100.00;47849.69;4993146;28;20219;-87
2022/12/05 07:22:05;;;;;;;51.30;22.53;;;;;;;-141.97;100.00;47890.06;4992580;28;20548;-87
2022/12/05 07:24:30;;;;;;;41.70;20.30;;;;;;;-141.97;100.00;47990.00;4992582;28;20243;-87
2022/12/05 07:26:56;;;;;;;48.00;21.27;;;;;;;-141.97;100.00;47961.19;4975160;28;20179;-88
2022/12/05 07:29:21;;;;;;;47.30;21.17;;;;;;;-141.97;100.00;47795.88;4992072;28;20166;-87
2022/12/05 07:31:46;;;;;;;46.27;21.70;;;;;;;-141.97;100.00;47949.66;4992690;28;20163;-88
2022/12/05 07:34:12;;;;;;;46.67;21.73;;;;;;;-141.97;100.00;47795.88;4993659;28;20223;-87
2022/12/05 07:36:38;;;;;;;45.40;21.00;;;;;;;-141.97;100.00;47882.38;4994085;28;20163;-86
2022/12/05 07:39:04;;;;;;;50.23;22.53;;;;;;;-141.97;100.00;47926.56;4993564;28;20199;-86
2022/12/05 07:41:31;;;;;;;43.63;20.07;;;;;;;-141.97;100.00;47915.03;4979421;28;20191;-87
2022/12/05 07:43:58;;;;;;;48.20;22.10;;;;;;;-141.97;100.00;47901.59;4978509;28;20644;-87
2022/12/05 07:46:25;;;;;;;52.50;24.67;;;;;;;-141.97;100.00;47903.50;4993691;28;20237;-88
2022/12/05 07:48:52;;;;;;;79.73;35.50;;;;;;;-141.97;100.00;47868.91;4989533;28;20163;-87
2022/12/05 07:51:18;;;;;;;79.10;35.10;;;;;;;-141.97;100.00;47786.25;4994551;28;20393;-86
2022/12/05 07:53:44;;;;;;;65.13;27.70;;;;;;;-141.97;100.00;47876.59;4994815;28;20664;-88
2022/12/05 07:56:15;;;;;;;57.73;27.50;;;;;;;-141.97;100.00;47907.34;5009553;28;20171;-87
2022/12/05 07:58:42;;;;;;;51.13;22.43;;;;;;;-141.97;100.00;47874.69;4992224;28;20199;-87
2022/12/05 08:01:16;;;;;;;71.70;31.57;;;;;;;-141.97;100.00;47876.59;4992962;28;20256;-89
2022/12/05 08:03:43;;;;;;;77.37;32.70;;;;;;;-141.97;100.00;47861.22;4993592;28;20557;-88
2022/12/05 08:06:11;;;;;;;52.43;24.50;;;;;;;-141.97;100.00;47884.28;4992674;28;20582;-88
2022/12/05 08:08:37;;;;;;;46.83;22.77;;;;;;;-141.97;100.00;48013.06;4963306;28;20235;-88
2022/12/05 08:11:05;;;;;;;45.00;22.47;;;;;;;-141.97;100.00;47922.72;4993009;28;20525;-88
2022/12/05 08:13:30;;;;;;;43.67;21.33;;;;;;;-141.97;100.00;47924.66;4991742;28;20187;-88
2022/12/05 08:16:00;;;;;;;44.87;22.27;;;;;;;-141.97;100.00;47940.03;4993296;28;20171;-88
2022/12/05 08:18:25;;;;;;;48.73;23.27;;;;;;;-141.97;100.00;47907.34;4992134;28;20195;-88
2022/12/05 08:20:51;;;;;;;45.03;21.50;;;;;;;-141.97;100.00;47828.53;4992033;28;20160;-88
2022/12/05 08:23:16;;;;;;;43.80;21.60;;;;;;;-141.97;100.00;47968.88;4992892;28;20206;-87
2022/12/05 08:25:41;;;;;;;46.57;22.30;;;;;;;-141.97;100.00;47888.13;4993457;28;20162;-83
2022/12/05 08:28:07;;;;;;;50.33;23.17;;;;;;;-141.97;99.99;47865.06;4991130;28;20172;-83
2022/12/05 08:30:33;;;;;;;49.47;23.70;;;;;;;-141.97;99.41;47890.06;4991204;28;20255;-84
2022/12/05 08:32:59;;;;;;;47.77;22.03;;;;;;;-141.97;99.76;47928.50;4991524;28;20222;-84
2022/12/05 08:35:24;;;;;;;56.37;27.23;;;;;;;-141.97;99.38;47907.34;4991456;28;20171;-83
2022/12/05 08:37:50;;;;;;;58.10;27.93;;;;;;;-141.97;100.00;47918.88;4990380;28;20252;-83
2022/12/05 08:40:16;;;;;;;48.07;22.47;;;;;;;-141.97;98.99;47872.75;4992952;28;20237;-83
2022/12/05 08:42:41;;;;;;;86.47;34.83;;;;;;;-141.97;100.00;47957.34;4994583;28;20226;-83
2022/12/05 08:45:07;;;;;;;49.87;22.97;;;;;;;-141.97;99.96;47941.94;4994556;28;20297;-83
2022/12/05 08:47:33;;;;;;;47.47;23.57;;;;;;;-141.97;100.00;47907.34;4994257;28;20574;-83
2022/12/05 08:49:58;;;;;;;45.33;22.07;;;;;;;-141.97;100.00;47891.97;5000013;28;20178;-82
2022/12/05 08:52:23;;;;;;;44.23;21.80;;;;;;;-141.97;100.00;47880.44;5013905;28;20274;-83
2022/12/05 08:54:49;;;;;;;50.57;20.73;;;;;;;-141.97;99.28;47922.72;5013917;28;20191;-83
2022/12/05 08:57:14;;;;;;;54.20;23.90;;;;;;;-141.97;98.62;47926.56;5004536;28;20620;-83
2022/12/05 08:59:40;;;;;;;54.70;23.73;;;;;;;-141.97;98.07;47899.66;4994156;28;20187;-83
2022/12/05 09:02:05;;;;;;;44.50;21.73;;;;;;;-141.97;97.45;47891.97;4994546;28;20183;-83
2022/12/05 09:04:30;;;;;;;40.63;19.97;;;;;;;-141.97;96.61;47911.19;4994494;28;20242;-83
2022/12/05 09:06:56;;;;;;;39.70;19.23;;;;;;;-141.97;97.01;47922.72;4995301;28;20258;-81
2022/12/05 09:09:21;;;;;;;40.00;19.73;;;;;;;-141.97;96.56;47895.81;4995310;28;20187;-82
2022/12/05 09:11:49;;;;;;;38.97;18.87;;;;;;;-141.97;96.29;47903.50;4994278;28;20163;-83
2022/12/05 09:14:15;;;;;;;38.97;19.30;;;;;;;-141.97;96.57;47815.09;4994256;28;20171;-82
2022/12/05 09:16:43;;;;;;;39.73;20.50;;;;;;;-141.97;96.78;47880.44;4993971;28;20171;-83
2022/12/05 09:19:12;;;;;;;37.80;19.27;;;;;;;-141.97;96.58;47845.84;4976212;28;20199;-83
2022/12/05 09:21:37;;;;;;;41.80;21.00;;;;;;;-141.97;96.16;47907.34;4982459;28;20235;-83
2022/12/05 09:24:03;;;;;;;43.93;21.13;;;;;;;-141.97;94.36;48005.38;4994026;28;20160;-83
2022/12/05 09:26:29;;;;;;;51.17;24.50;;;;;;;-141.97;94.40;47853.53;4993775;28;20628;-83
2022/12/05 09:28:55;;;;;;;51.00;22.77;;;;;;;-141.97;94.73;47820.84;4993805;28;20214;-83
2022/12/05 09:31:23;;;;;;;43.90;21.77;;;;;;;-141.97;96.44;47909.28;4993971;28;20663;-83
2022/12/05 09:33:50;;;;;;;44.93;21.80;;;;;;;-141.97;95.36;47905.44;4993319;28;20226;-83
2022/12/05 09:36:22;;;;;;;41.47;20.43;;;;;;;-141.97;94.79;47732.44;4993809;28;20191;-83
2022/12/05 09:38:47;;;;;;;47.60;20.83;;;;;;;-141.97;94.40;47822.78;4993369;28;20643;-83
2022/12/05 09:44:56;;;;;;;43.40;20.53;;;;;;;-141.97;92.46;47918.88;4993461;28;20245;-83
2022/12/05 09:47:43;;;;;;;35.37;17.53;;;;;;;-141.97;90.69;47880.44;4993227;28;20310;-83
2022/12/05 09:50:17;;;;;;;40.43;17.83;;;;;;;-141.97;90.36;47903.50;5000245;28;20178;-83
2022/12/05 09:52:54;;;;;;;35.43;18.00;;;;;;;-141.97;91.27;47899.66;5013593;28;20162;-84
2022/12/05 09:55:20;;;;;;;38.93;19.23;;;;;;;-141.97;90.43;47903.50;5013078;28;20202;-84
2022/12/05 09:57:55;;;;;;;40.53;20.47;;;;;;;-141.97;91.69;47884.28;5001168;28;20267;-84
2022/12/05 10:00:20;;;;;;;32.83;16.60;;;;;;;-141.97;90.61;47884.28;4992878;28;20174;-84
2022/12/05 10:03:10;;;;;;;38.87;19.13;;;;;;;-141.97;91.02;47845.84;4993415;28;20175;-84
2022/12/05 10:05:46;;;;;;;36.77;17.60;;;;;;;-141.97;91.52;47880.44;4993460;28;20163;-85
2022/12/05 10:08:21;;;;;;;34.43;17.13;;;;;;;-141.97;90.93;47945.81;4975272;28;20222;-84
2022/12/05 10:10:52;;;;;;;34.03;16.97;;;;;;;-141.97;90.22;47890.06;4993270;28;20307;-84
2022/12/05 10:13:23;;;;;;;40.03;18.53;;;;;;;-141.97;89.93;47920.81;4993232;28;20198;-84
2022/12/05 10:15:56;;;;;;;37.03;18.97;;;;;;;-141.97;89.38;47895.81;4993106;28;20628;-84
2022/12/05 10:18:27;;;;;;;42.13;19.70;;;;;;;-141.97;88.93;47891.97;4992762;28;20195;-84
2022/12/05 10:21:01;;;;;;;41.30;18.80;;;;;;;-141.97;88.68;47843.91;4992856;28;20624;-84
2022/12/05 10:23:34;;;;;;;43.60;21.50;;;;;;;-141.97;87.01;47886.22;4975370;28;20163;-84
2022/12/05 10:26:04;;;;;;;39.27;19.20;;;;;;;-141.97;85.60;47870.81;4996507;28;20194;-84
2022/12/05 10:28:35;;;;;;;38.53;19.43;;;;;;;-141.97;84.60;47916.97;4991092;28;20593;-84
2022/12/05 10:31:05;;;;;;;43.83;22.67;;;;;;;-141.97;83.08;47813.16;4992811;28;20166;-84
2022/12/05 10:33:38;;;;;;;37.43;19.40;;;;;;;-141.97;83.17;47911.19;4983530;28;20223;-84
2022/12/05 10:36:13;;;;;;;71.87;35.40;;;;;;;-141.97;83.22;47842.00;4992655;28;20171;-84
2022/12/05 10:38:40;;;;;;;54.80;26.10;;;;;;;-141.97;82.92;47859.28;4992354;28;20199;-84
2022/12/05 10:41:09;;;;;;;45.33;24.13;;;;;;;-141.97;83.44;47957.34;4992836;28;20171;-84
2022/12/05 10:43:39;;;;;;;46.77;22.90;;;;;;;-141.97;83.48;47849.69;4991400;28;20210;-84
2022/12/05 10:46:05;;;;;;;65.30;33.33;;;;;;;-141.97;82.95;47882.38;4959886;28;20266;-86
2022/12/05 10:48:35;;;;;;;64.27;32.37;;;;;;;-141.97;83.77;47893.91;4992357;28;20612;-82
2022/12/05 10:51:01;;;;;;;42.97;21.53;;;;;;;-141.97;83.60;47861.22;5006164;28;20211;-84
2022/12/05 10:53:36;;;;;;;40.70;19.93;;;;;;;-141.97;84.30;47893.91;5011839;28;20656;-82
2022/12/05 10:56:02;;;;;;;40.50;19.60;;;;;;;-141.97;84.29;47784.34;5012553;28;20198;-81
2022/12/05 10:58:29;;;;;;;40.73;20.00;;;;;;;-141.97;83.42;47847.75;4996844;28;20187;-82
2022/12/05 11:01:07;;;;;;;35.77;18.47;;;;;;;-141.97;82.29;47901.59;5002034;28;20171;-81
2022/12/05 11:03:36;;;;;;;29.97;15.27;;;;;;;-141.97;81.45;47911.19;4992596;28;20599;-81
2022/12/05 11:06:25;;;;;;;32.10;15.53;;;;;;;-141.97;81.28;47909.28;4995288;28;20567;-82
2022/12/05 11:08:53;;;;;;;34.90;16.90;;;;;;;-141.97;81.25;47965.03;4974075;28;20230;-82
2022/12/05 11:11:22;;;;;;;40.03;20.40;;;;;;;-141.97;81.34;47795.88;4992050;28;20241;-83
2022/12/05 11:13:58;;;;;;;53.13;25.23;;;;;;;-141.97;82.10;47863.13;4991679;28;20179;-82
2022/12/05 11:16:29;;;;;;;47.73;22.60;;;;;;;-141.97;81.42;47880.44;4992082;28;20722;-83
2022/12/05 11:18:54;;;;;;;40.53;19.17;;;;;;;-141.97;81.11;47886.22;4991285;28;20194;-81
2022/12/05 11:21:20;;;;;;;63.63;27.80;;;;;;;-141.97;80.68;47903.50;4974329;28;20193;-83